Time;durP1;ratioP1;P1;durP2;ratioP2;P2;SDS_P1;SDS_P2;PMS_P1;PMS_P2;Temp;Humidity;BMP_temperature;BMP_pressure;BME280_temperature;BME280_humidity;BME280_pressure;Samples;Min_cycle;Max_cycle;Signal;HPM_P1;HPM_P2
2023/05/23 00:00:59;;;;;;;;;12.00;10.25;;;;;18.27;77.29;99124.44;5103421;27;45323;-76
2023/05/23 00:03:26;;;;;;;;;12.50;11.50;;;;;18.21;76.10;99109.75;5096862;27;45407;-76
2023/05/23 00:05:51;;;;;;;;;14.50;10.50;;;;;18.21;76.45;99115.06;5119069;27;45383;-76
2023/05/23 00:08:17;;;;;;;;;15.50;13.00;;;;;18.19;75.85;99116.16;5119113;27;45342;-76
2023/05/23 00:10:44;;;;;;;;;12.00;12.00;;;;;18.16;76.07;99111.03;5118773;27;45285;-76
2023/05/23 00:13:14;;;;;;;;;10.60;8.60;;;;;18.16;76.23;99117.22;5099536;27;45408;-76
2023/05/23 00:15:41;;;;;;;;;16.50;15.75;;;;;18.16;75.82;99114.53;5100187;27;45431;-76
2023/05/23 00:18:13;;;;;;;;;11.20;10.80;;;;;18.14;75.95;99106.66;5118874;27;45476;-76
2023/05/23 00:20:41;;;;;;;;;10.80;8.60;;;;;18.13;75.35;99104.09;5100045;27;45329;-76
2023/05/23 00:23:08;;;;;;;;;13.25;12.75;;;;;18.10;75.73;99107.81;5097184;27;45341;-76
2023/05/23 00:25:37;;;;;;;;;13.50;11.75;;;;;18.08;74.99;99109.78;5110028;27;45511;-76
2023/05/23 00:28:03;;;;;;;;;17.00;14.00;;;;;18.08;75.11;99106.25;5096964;27;46284;-76
2023/05/23 00:30:30;;;;;;;;;11.00;11.00;;;;;18.06;75.39;99101.00;5109107;27;45376;-76
2023/05/23 00:32:56;;;;;;;;;13.40;13.20;;;;;18.04;75.43;99096.75;5111828;27;45490;-76
2023/05/23 00:35:22;;;;;;;;;12.25;12.25;;;;;18.03;75.10;99092.38;5097747;27;45380;-76
2023/05/23 00:37:49;;;;;;;;;17.00;15.00;;;;;17.99;75.36;99090.88;5097835;27;45842;-76
2023/05/23 00:40:14;;;;;;;;;12.40;11.60;;;;;18.01;75.05;99094.28;5096662;27;45452;-76
2023/05/23 00:42:40;;;;;;;;;12.25;12.25;;;;;17.96;74.91;99093.75;5098037;27;45408;-76
2023/05/23 00:45:06;;;;;;;;;12.25;12.25;;;;;17.92;75.32;99087.81;5098291;27;45512;-76
2023/05/23 00:47:32;;;;;;;;;14.75;13.25;;;;;17.88;75.44;99091.66;5109390;27;46785;-76
2023/05/23 00:49:58;;;;;;;;;12.00;11.75;;;;;17.82;76.19;99085.88;5097743;27;45439;-75
2023/05/23 00:52:24;;;;;;;;;12.75;12.75;;;;;17.74;76.34;99087.28;5104328;27;45361;-76
2023/05/23 00:54:49;;;;;;;;;12.25;12.00;;;;;17.69;75.60;99086.75;5104054;27;45431;-76
2023/05/23 00:57:15;;;;;;;;;15.25;12.25;;;;;17.66;75.90;99094.94;5097503;27;45990;-75
2023/05/23 00:59:41;;;;;;;;;14.75;13.25;;;;;17.64;75.75;99099.53;5097834;27;45280;-76
2023/05/23 01:02:07;;;;;;;;;14.25;13.75;;;;;17.62;76.66;99098.75;5097579;27;45394;-76
2023/05/23 01:04:33;;;;;;;;;14.00;13.50;;;;;17.61;76.31;99097.03;5097557;27;45423;-76
2023/05/23 01:06:59;;;;;;;;;12.50;11.75;;;;;17.57;76.58;99092.03;5097509;27;45448;-76
2023/05/23 01:09:27;;;;;;;;;14.20;13.20;;;;;17.51;76.51;99092.47;5110405;27;45888;-76
2023/05/23 01:11:55;;;;;;;;;14.40;13.40;;;;;17.47;76.31;99093.63;5117866;27;45445;-76
2023/05/23 01:14:31;;;;;;;;;12.25;11.25;;;;;17.40;76.30;99093.22;5098266;27;45556;-76
2023/05/23 01:17:05;;;;;;;;;16.00;15.00;;;;;17.33;77.41;99099.91;5096898;27;45470;-76
2023/05/23 01:19:46;;;;;;;;;12.60;12.40;;;;;17.23;77.33;99105.00;5097455;27;45331;-76
2023/05/23 01:22:22;;;;;;;;;17.50;15.50;;;;;17.17;77.89;99107.22;5096970;27;45438;-76
2023/05/23 01:24:56;;;;;;;;;14.50;14.50;;;;;17.14;77.42;99108.28;5097316;27;45344;-76
2023/05/23 01:27:49;;;;;;;;;13.00;13.00;;;;;17.12;78.12;99110.19;5097017;27;45916;-76
2023/05/23 01:30:17;;;;;;;;;13.00;12.60;;;;;17.12;78.34;99106.66;5107050;27;45466;-76
2023/05/23 01:32:44;;;;;;;;;13.00;12.25;;;;;17.12;77.78;99104.00;5115656;27;45468;-76
2023/05/23 01:35:10;;;;;;;;;15.25;13.00;;;;;17.10;77.48;99109.44;5105097;27;45363;-76
2023/05/23 01:37:36;;;;;;;;;14.00;13.00;;;;;17.07;77.87;99107.00;5114006;27;47643;-76
2023/05/23 01:40:01;;;;;;;;;15.00;12.50;;;;;17.06;78.02;99102.63;5114290;27;45444;-76
2023/05/23 01:42:27;;;;;;;;;17.00;15.75;;;;;17.05;77.70;99108.91;5098318;27;45564;-76
2023/05/23 01:44:52;;;;;;;;;14.50;14.50;;;;;17.02;78.27;99101.97;5097046;27;45352;-76
2023/05/23 01:47:20;;;;;;;;;15.75;12.25;;;;;17.01;78.07;99108.25;5096496;27;45433;-76
2023/05/23 01:49:46;;;;;;;;;16.25;16.25;;;;;17.00;78.93;99108.34;5096923;27;45451;-76
2023/05/23 01:52:14;;;;;;;;;16.00;15.00;;;;;16.98;78.61;99092.47;5096608;27;45410;-76
2023/05/23 01:54:42;;;;;;;;;14.75;13.50;;;;;16.98;78.53;99097.78;5107722;27;45404;-76
2023/05/23 01:57:08;;;;;;;;;13.75;12.50;;;;;16.94;79.09;99090.97;5095365;27;47893;-76
2023/05/23 01:59:34;;;;;;;;;14.80;14.80;;;;;16.91;78.67;99096.50;5095217;27;46138;-76
2023/05/23 02:02:00;;;;;;;;;16.50;14.50;;;;;16.91;78.81;99093.00;5109657;27;45423;-76
2023/05/23 02:04:29;;;;;;;;;16.00;14.75;;;;;16.92;79.13;99094.72;5096657;27;45479;-76
2023/05/23 02:06:54;;;;;;;;;13.75;13.25;;;;;16.91;79.68;99085.88;5111938;27;48453;-76
2023/05/23 02:09:20;;;;;;;;;15.25;13.50;;;;;16.92;79.33;99084.06;5110240;27;45354;-76
2023/05/23 02:11:45;;;;;;;;;16.00;15.25;;;;;16.90;79.25;99084.16;5117088;27;45501;-76
2023/05/23 02:14:11;;;;;;;;;14.50;13.75;;;;;16.90;78.62;99083.28;5117080;27;45321;-76
2023/05/23 02:16:37;;;;;;;;;15.25;15.00;;;;;16.91;79.11;99085.00;5116402;27;45469;-76
2023/05/23 02:19:03;;;;;;;;;15.00;14.75;;;;;16.92;79.39;99087.56;5115418;27;45345;-76
2023/05/23 02:21:28;;;;;;;;;15.00;14.50;;;;;16.92;79.00;99086.72;5096768;27;45387;-76
2023/05/23 02:23:53;;;;;;;;;17.00;16.00;;;;;16.93;79.36;99088.41;5105428;27;45369;-76
2023/05/23 02:26:19;;;;;;;;;16.00;16.00;;;;;16.94;79.09;99090.97;5095947;27;46126;-74
2023/05/23 02:28:44;;;;;;;;;16.25;14.75;;;;;16.95;79.24;99094.47;5095738;27;45691;-75
2023/05/23 02:31:10;;;;;;;;;14.75;14.75;;;;;16.94;79.45;99092.75;5095948;27;45358;-75
2023/05/23 02:33:35;;;;;;;;;14.50;14.25;;;;;16.93;79.18;99088.41;5106779;27;45512;-74
2023/05/23 02:36:01;;;;;;;;;15.75;15.00;;;;;16.92;78.90;99089.38;5111418;27;46131;-75
2023/05/23 02:38:26;;;;;;;;;17.25;15.50;;;;;16.93;78.80;99091.06;5095774;27;45418;-75
2023/05/23 02:40:52;;;;;;;;;16.50;14.50;;;;;16.95;79.58;99089.16;5095677;27;45529;-75
2023/05/23 02:43:18;;;;;;;;;13.75;13.50;;;;;16.98;79.69;99091.63;5097692;27;45517;-74
2023/05/23 02:45:44;;;;;;;;;16.50;14.75;;;;;16.96;79.07;99086.38;5093696;27;48211;-75
2023/05/23 02:48:10;;;;;;;;;20.00;14.00;;;;;16.97;78.56;99092.56;5108256;27;45364;-74
2023/05/23 02:50:36;;;;;;;;;16.00;15.00;;;;;16.97;79.12;99093.41;5096435;27;45654;-75
2023/05/23 02:53:02;;;;;;;;;17.75;16.25;;;;;16.99;79.26;99094.19;5095608;27;45382;-75
2023/05/23 02:55:27;;;;;;;;;15.25;14.50;;;;;17.01;79.28;99094.06;5095632;27;46318;-75
2023/05/23 02:57:53;;;;;;;;;17.00;15.00;;;;;17.02;79.16;99096.63;5096014;27;45385;-74
2023/05/23 03:00:18;;;;;;;;;20.00;14.75;;;;;16.99;78.54;99090.66;5095111;27;45323;-75
2023/05/23 03:02:44;;;;;;;;;14.25;14.25;;;;;16.99;79.11;99091.50;5095665;27;45316;-75
2023/05/23 03:05:09;;;;;;;;;14.75;12.75;;;;;17.01;79.45;99094.94;5095240;27;46287;-74
2023/05/23 03:07:35;;;;;;;;;15.00;15.00;;;;;17.03;79.34;99098.34;5106308;27;45450;-74
2023/05/23 03:10:01;;;;;;;;;15.00;15.00;;;;;17.03;79.52;99086.84;5096886;27;45345;-75
2023/05/23 03:12:29;;;;;;;;;18.00;14.50;;;;;17.07;79.66;99089.22;5105460;27;45506;-75
2023/05/23 03:14:55;;;;;;;;;14.50;13.75;;;;;17.08;79.17;99093.56;5095705;27;45363;-74
2023/05/23 03:17:20;;;;;;;;;15.50;15.25;;;;;17.09;78.87;99097.91;5095643;27;45343;-75
2023/05/23 03:19:46;;;;;;;;;13.75;13.00;;;;;17.12;78.89;99093.34;5095381;27;45465;-74
2023/05/23 03:22:11;;;;;;;;;13.75;13.00;;;;;17.12;79.25;99096.88;5095114;27;45360;-75
2023/05/23 03:24:36;;;;;;;;;15.00;13.75;;;;;17.14;78.86;99100.28;5101628;27;46764;-75
2023/05/23 03:27:03;;;;;;;;;15.00;14.50;;;;;17.13;79.40;99101.25;5114288;27;45321;-74
2023/05/23 03:29:28;;;;;;;;;16.50;13.00;;;;;17.14;79.54;99102.94;5095022;27;45500;-75
2023/05/23 03:31:53;;;;;;;;;15.00;15.00;;;;;17.15;79.88;99102.00;5094352;27;45302;-74
2023/05/23 03:34:19;;;;;;;;;16.75;14.25;;;;;17.17;79.77;99105.41;5094188;27;46351;-75
2023/05/23 03:36:44;;;;;;;;;15.75;14.00;;;;;17.18;79.04;99095.59;5094757;27;45294;-75
2023/05/23 03:39:09;;;;;;;;;17.25;17.25;;;;;17.19;78.71;99102.66;5098144;27;45507;-75
2023/05/23 03:41:35;;;;;;;;;16.00;14.75;;;;;17.20;78.79;99107.03;5103513;27;45493;-75
2023/05/23 03:44:00;;;;;;;;;19.00;18.00;;;;;17.22;79.06;99102.44;5093991;27;45442;-75
2023/05/23 03:46:26;;;;;;;;;15.75;15.00;;;;;17.24;79.17;99108.53;5093911;27;45484;-74
2023/05/23 03:48:51;;;;;;;;;20.50;19.50;;;;;17.26;78.96;99103.97;5094282;27;45586;-75
2023/05/23 03:51:16;;;;;;;;;17.00;16.25;;;;;17.27;78.74;99106.50;5094913;27;45427;-75
2023/05/23 03:53:42;;;;;;;;;17.00;16.00;;;;;17.28;79.18;99110.00;5094781;27;46165;-75
2023/05/23 03:56:07;;;;;;;;;15.00;15.00;;;;;17.29;79.09;99115.22;5094937;27;45481;-75
2023/05/23 03:58:33;;;;;;;;;18.50;15.50;;;;;17.29;78.86;99112.56;5110819;27;45537;-75
2023/05/23 04:00:58;;;;;;;;;16.00;15.25;;;;;17.30;78.85;99110.75;5103667;27;45401;-75
2023/05/23 04:03:24;;;;;;;;;15.00;15.00;;;;;17.30;79.31;99111.63;5094241;27;46247;-75
2023/05/23 04:05:50;;;;;;;;;17.00;16.25;;;;;17.31;79.18;99100.00;5094452;27;45322;-75
2023/05/23 04:08:16;;;;;;;;;14.50;13.25;;;;;17.33;79.24;99094.56;5094696;27;45363;-74
2023/05/23 04:10:42;;;;;;;;;17.25;16.00;;;;;17.34;78.84;99097.13;5100566;27;45562;-75
2023/05/23 04:13:08;;;;;;;;;17.00;16.00;;;;;17.33;79.43;99090.09;5112400;27;45400;-75
2023/05/23 04:15:34;;;;;;;;;16.50;14.00;;;;;17.33;79.05;99098.09;5113308;27;45383;-75
2023/05/23 04:17:59;;;;;;;;;13.25;13.00;;;;;17.31;79.10;99099.16;5113672;27;45410;-74
2023/05/23 04:20:25;;;;;;;;;17.00;16.25;;;;;17.30;79.58;99092.97;5114401;27;45436;-74
2023/05/23 04:22:50;;;;;;;;;17.75;17.00;;;;;17.31;79.28;99101.81;5095433;27;46768;-75
2023/05/23 04:25:17;;;;;;;;;16.00;14.75;;;;;17.31;78.96;99096.47;5104109;27;45398;-75
2023/05/23 04:27:43;;;;;;;;;18.75;17.00;;;;;17.29;78.73;99106.38;5110852;27;45477;-75
2023/05/23 04:30:09;;;;;;;;;20.50;16.75;;;;;17.28;79.24;99108.19;5114603;27;45477;-74
2023/05/23 04:32:35;;;;;;;;;16.50;15.75;;;;;17.31;78.67;99107.13;5113276;27;47141;-75
2023/05/23 04:35:03;;;;;;;;;24.75;16.75;;;;;17.32;78.84;99103.53;5101881;27;45368;-75
2023/05/23 04:37:28;;;;;;;;;15.50;15.50;;;;;17.35;78.17;99103.31;5112489;27;45398;-75
2023/05/23 04:39:54;;;;;;;;;15.00;13.00;;;;;17.37;77.82;99101.41;5114686;27;45354;-75
2023/05/23 04:42:23;;;;;;;;;17.00;15.25;;;;;17.38;77.79;99109.28;5095416;27;45433;-75
2023/05/23 04:44:49;;;;;;;;;18.00;15.25;;;;;17.40;78.14;99114.53;5092612;27;45710;-74
2023/05/23 04:47:15;;;;;;;;;17.25;16.00;;;;;17.42;77.85;99116.13;5093617;27;45352;-75
2023/05/23 04:49:41;;;;;;;;;17.50;16.00;;;;;17.45;77.78;99112.38;5094655;27;45355;-75
2023/05/23 04:52:06;;;;;;;;;15.75;14.75;;;;;17.47;78.02;99113.13;5114189;27;48489;-75
2023/05/23 04:54:32;;;;;;;;;17.75;16.50;;;;;17.49;77.80;99119.22;5105207;27;45352;-75
2023/05/23 04:56:57;;;;;;;;;12.50;12.50;;;;;17.50;78.29;99115.59;5096618;27;45524;-75
2023/05/23 04:59:23;;;;;;;;;15.75;15.75;;;;;17.52;78.16;99115.50;5097242;27;45484;-75
2023/05/23 05:01:48;;;;;;;;;17.25;17.00;;;;;17.54;78.59;99116.25;5101206;27;45885;-75
2023/05/23 05:04:14;;;;;;;;;15.00;15.00;;;;;17.55;78.35;99113.47;5105856;27;45403;-75
2023/05/23 05:06:40;;;;;;;;;15.75;15.00;;;;;17.59;78.58;99119.47;5096260;27;45596;-75
2023/05/23 05:09:05;;;;;;;;;16.75;15.50;;;;;17.61;78.59;99115.69;5094361;27;45432;-75
2023/05/23 05:11:31;;;;;;;;;16.75;14.00;;;;;17.63;78.28;99118.25;5096124;27;45583;-75
2023/05/23 05:13:56;;;;;;;;;17.25;16.00;;;;;17.64;78.71;99112.84;5096928;27;45415;-75
2023/05/23 05:16:21;;;;;;;;;21.00;19.25;;;;;17.67;78.16;99115.31;5096121;27;46023;-75
2023/05/23 05:18:47;;;;;;;;;18.00;16.50;;;;;17.68;77.74;99117.03;5096237;27;45470;-77
2023/05/23 05:21:12;;;;;;;;;22.75;17.00;;;;;17.75;78.01;99114.81;5097029;27;45915;-68
2023/05/23 05:23:37;;;;;;;;;15.25;15.25;;;;;17.76;77.32;99117.34;5103359;27;45457;-69
2023/05/23 05:26:04;;;;;;;;;16.75;15.25;;;;;17.78;76.63;99118.09;5099770;27;45398;-68
2023/05/23 05:28:29;;;;;;;;;15.75;14.00;;;;;17.80;76.18;99115.31;5108705;27;45439;-68
2023/05/23 05:30:55;;;;;;;;;14.00;13.25;;;;;17.84;76.18;99114.16;5110392;27;47611;-68
2023/05/23 05:33:24;;;;;;;;;16.25;15.25;;;;;17.88;76.02;99112.13;5095569;27;45452;-68
2023/05/23 05:35:50;;;;;;;;;16.50;14.75;;;;;17.92;75.24;99116.28;5097252;27;45453;-69
2023/05/23 05:38:16;;;;;;;;;18.50;15.25;;;;;17.93;75.26;99118.81;5095937;27;45538;-68
2023/05/23 05:40:41;;;;;;;;;13.50;13.50;;;;;17.95;75.09;99116.06;5108164;27;47139;-69
2023/05/23 05:43:07;;;;;;;;;16.50;15.25;;;;;17.97;74.91;99111.47;5095887;27;45406;-69
2023/05/23 05:45:32;;;;;;;;;14.75;13.25;;;;;18.01;74.63;99116.47;5095470;27;45429;-69
2023/05/23 05:47:58;;;;;;;;;16.00;14.00;;;;;18.04;74.45;99112.75;5095799;27;45403;-69
2023/05/23 05:50:23;;;;;;;;;19.25;15.25;;;;;18.05;74.46;99115.31;5095512;27;45560;-68
2023/05/23 05:52:49;;;;;;;;;15.75;15.25;;;;;18.07;74.04;99112.53;5096059;27;45442;-68
2023/05/23 05:55:14;;;;;;;;;13.50;13.50;;;;;18.06;74.31;99113.50;5095955;27;45431;-68
2023/05/23 05:57:40;;;;;;;;;15.25;13.75;;;;;18.05;73.73;99109.97;5095867;27;45485;-70
2023/05/23 06:00:12;;;;;;;;;19.75;18.75;;;;;18.07;74.01;99115.22;5094996;27;45492;-69
2023/05/23 06:02:38;;;;;;;;;16.50;16.50;;;;;18.09;74.04;99116.81;5102045;27;45515;-69
2023/05/23 06:05:06;;;;;;;;;14.75;13.50;;;;;18.13;73.84;99112.09;5112813;27;45542;-69
2023/05/23 06:07:32;;;;;;;;;18.00;14.50;;;;;18.16;73.58;99117.22;5107192;27;45445;-69
2023/05/23 06:09:58;;;;;;;;;13.50;12.50;;;;;18.19;73.21;99121.47;5107583;27;46341;-70
2023/05/23 06:12:23;;;;;;;;;17.25;17.25;;;;;18.24;73.43;99122.00;5099017;27;45407;-69
2023/05/23 06:14:48;;;;;;;;;11.00;11.00;;;;;18.29;73.51;99119.84;5113733;27;45329;-70
2023/05/23 06:17:14;;;;;;;;;14.25;14.25;;;;;18.33;72.77;99116.00;5104909;27;45433;-69
2023/05/23 06:19:39;;;;;;;;;15.25;14.00;;;;;18.37;72.26;99128.19;5111521;27;45625;-70
2023/05/23 06:22:05;;;;;;;;;15.25;14.00;;;;;18.44;71.91;99124.09;5104631;27;45346;-70
2023/05/23 06:24:30;;;;;;;;;16.00;15.00;;;;;18.52;71.77;99119.06;5105439;27;45467;-70
2023/05/23 06:26:55;;;;;;;;;19.00;15.25;;;;;18.62;71.50;99116.59;5095052;27;45428;-70
2023/05/23 06:29:21;;;;;;;;;15.25;14.25;;;;;18.71;71.16;99115.94;5110786;27;45363;-69
2023/05/23 06:31:46;;;;;;;;;13.75;13.00;;;;;18.74;70.88;99113.91;5104127;27;45514;-70
2023/05/23 06:34:11;;;;;;;;;15.75;15.25;;;;;18.79;71.66;99108.19;5098383;27;45581;-70
2023/05/23 06:36:37;;;;;;;;;20.25;19.75;;;;;18.90;71.93;99110.94;5104985;27;45523;-71
2023/05/23 06:39:02;;;;;;;;;15.75;14.25;;;;;19.02;71.21;99119.84;5105122;27;45511;-71
2023/05/23 06:41:27;;;;;;;;;16.25;16.25;;;;;19.14;71.14;99118.94;5095216;27;45444;-70
2023/05/23 06:43:53;;;;;;;;;15.75;13.50;;;;;19.24;71.16;99121.78;5094683;27;45556;-71
2023/05/23 06:46:18;;;;;;;;;18.25;14.00;;;;;19.35;70.39;99121.81;5093886;27;45549;-71
2023/05/23 06:48:44;;;;;;;;;16.75;13.75;;;;;19.44;70.55;99118.41;5093978;27;46461;-71
2023/05/23 06:51:10;;;;;;;;;16.25;16.25;;;;;19.52;70.18;99119.59;5094418;27;45542;-71
2023/05/23 06:53:35;;;;;;;;;13.25;10.50;;;;;19.60;70.22;99121.69;5094548;27;45413;-70
2023/05/23 06:56:00;;;;;;;;;15.00;13.75;;;;;19.64;69.88;99123.13;5094079;27;45500;-71
2023/05/23 06:58:26;;;;;;;;;20.50;16.75;;;;;19.68;69.92;99126.41;5093883;27;45426;-71
2023/05/23 07:00:51;;;;;;;;;19.25;17.25;;;;;19.74;69.93;99123.28;5094494;27;45267;-71
2023/05/23 07:03:17;;;;;;;;;17.75;16.00;;;;;19.79;69.47;99121.94;5095218;27;45527;-71
2023/05/23 07:05:42;;;;;;;;;23.25;18.50;;;;;19.84;69.11;99119.75;5094803;27;45490;-71
2023/05/23 07:08:09;;;;;;;;;16.50;15.25;;;;;19.84;69.19;99122.44;5094550;27;45434;-71
2023/05/23 07:10:35;;;;;;;;;17.00;14.80;;;;;19.77;68.18;99123.06;5094599;27;45407;-71
2023/05/23 07:13:00;;;;;;;;;16.75;16.50;;;;;19.72;68.28;99131.44;5095093;27;45442;-70
2023/05/23 07:15:26;;;;;;;;;16.25;14.50;;;;;19.74;68.20;99117.94;5094735;27;45359;-70
2023/05/23 07:17:51;;;;;;;;;15.00;15.00;;;;;19.74;68.19;99128.63;5094960;27;46320;-71
2023/05/23 07:20:17;;;;;;;;;18.00;16.00;;;;;19.65;68.25;99123.97;5095162;27;45480;-71
2023/05/23 07:22:42;;;;;;;;;16.75;16.00;;;;;19.56;67.96;99124.69;5106746;27;45498;-71
2023/05/23 07:25:08;;;;;;;;;15.25;15.25;;;;;19.45;68.76;99115.63;5104386;27;45418;-71
2023/05/23 07:27:34;;;;;;;;;17.75;17.50;;;;;19.35;68.23;99109.28;5094344;27;45581;-70
2023/05/23 07:30:00;;;;;;;;;19.75;18.00;;;;;19.26;69.31;99118.03;5094174;27;45512;-71
2023/05/23 07:32:25;;;;;;;;;15.50;15.50;;;;;19.22;69.03;99115.69;5094754;27;45441;-69
2023/05/23 07:34:51;;;;;;;;;14.75;14.75;;;;;19.18;69.39;99109.72;5094514;27;45505;-69
2023/05/23 07:37:16;;;;;;;;;15.00;15.00;;;;;19.20;69.48;99112.28;5094340;27;45402;-69
2023/05/23 07:39:42;;;;;;;;;17.75;16.00;;;;;19.24;69.10;99114.59;5094688;27;45314;-69
2023/05/23 07:42:07;;;;;;;;;17.25;16.25;;;;;19.25;69.20;99108.28;5096773;27;45327;-69
2023/05/23 07:44:32;;;;;;;;;15.25;13.50;;;;;19.30;69.63;99114.13;5102189;27;45369;-69
2023/05/23 07:46:58;;;;;;;;;16.00;14.50;;;;;19.38;69.47;99105.53;5110087;27;46493;-69
2023/05/23 07:49:23;;;;;;;;;18.00;15.75;;;;;19.44;69.07;99097.03;5094166;27;45280;-70
2023/05/23 07:51:49;;;;;;;;;21.00;18.50;;;;;19.50;69.58;99094.78;5093988;27;45433;-70
2023/05/23 07:54:14;;;;;;;;;20.00;19.25;;;;;19.57;68.63;99095.16;5102395;27;45501;-69
2023/05/23 07:56:42;;;;;;;;;15.50;15.50;;;;;19.63;68.48;99092.00;5098313;27;45948;-70
2023/05/23 07:59:07;;;;;;;;;20.20;17.40;;;;;19.68;68.00;99097.84;5094407;27;45411;-69
2023/05/23 08:01:33;;;;;;;;;14.25;14.25;;;;;19.71;68.07;99091.41;5094102;27;45399;-69
2023/05/23 08:03:58;;;;;;;;;18.25;15.50;;;;;19.76;67.57;99084.75;5094059;27;45392;-69
2023/05/23 08:06:24;;;;;;;;;18.25;15.75;;;;;19.82;67.01;99089.59;5093892;27;45407;-69
2023/05/23 08:08:50;;;;;;;;;13.25;11.25;;;;;19.90;67.21;99082.81;5094206;27;45426;-70
2023/05/23 08:11:15;;;;;;;;;20.25;18.25;;;;;19.96;67.04;99082.28;5094169;27;45418;-70
2023/05/23 08:13:40;;;;;;;;;15.25;14.75;;;;;19.96;67.21;99077.78;5094294;27;45681;-69
2023/05/23 08:16:06;;;;;;;;;18.00;18.00;;;;;19.96;68.48;99085.81;5093613;27;46058;-70
2023/05/23 08:18:31;;;;;;;;;22.50;19.50;;;;;19.98;67.42;99078.53;5093909;27;45347;-69
2023/05/23 08:20:56;;;;;;;;;17.25;16.50;;;;;20.04;67.93;99072.69;5093511;27;45314;-69
2023/05/23 08:23:22;;;;;;;;;17.50;17.50;;;;;20.08;66.00;99073.31;5098329;27;45432;-70
2023/05/23 08:25:47;;;;;;;;;18.25;18.25;;;;;20.06;66.13;99072.59;5101496;27;45444;-70
2023/05/23 08:28:13;;;;;;;;;16.25;16.25;;;;;20.07;66.99;99074.28;5097991;27;45407;-69
2023/05/23 08:30:38;;;;;;;;;19.25;17.50;;;;;20.10;67.45;99074.06;5097010;27;45387;-70
2023/05/23 08:33:03;;;;;;;;;22.00;19.75;;;;;20.14;66.95;99073.66;5097815;27;45555;-69
2023/05/23 08:35:33;;;;;;;;;19.25;16.75;;;;;20.13;66.88;99066.59;5097416;27;46366;-69
2023/05/23 08:38:00;;;;;;;;;18.40;17.60;;;;;20.13;66.14;99063.06;5097560;27;45380;-70
2023/05/23 08:40:28;;;;;;;;;19.25;19.25;;;;;20.13;65.82;99066.59;5097222;27;45429;-69
2023/05/23 08:42:53;;;;;;;;;18.00;16.50;;;;;20.10;66.30;99069.56;5097218;27;45367;-69
2023/05/23 08:45:19;;;;;;;;;20.50;17.25;;;;;20.10;66.17;99066.88;5112706;27;45454;-69
2023/05/23 08:47:45;;;;;;;;;22.00;19.75;;;;;20.12;65.92;99066.72;5118036;27;45399;-69
2023/05/23 08:50:13;;;;;;;;;16.00;14.25;;;;;20.12;66.46;99066.72;5118030;27;45525;-69
2023/05/23 08:52:57;;;;;;;;;19.75;17.75;;;;;20.19;67.02;99067.94;5117975;27;45578;-69
2023/05/23 08:55:29;;;;;;;;;19.00;18.50;;;;;20.23;67.50;99064.06;5117822;27;46391;-70
2023/05/23 08:57:58;;;;;;;;;18.20;16.80;;;;;20.28;66.36;99067.19;5103744;27;45826;-69
2023/05/23 09:00:24;;;;;;;;;17.00;12.00;;;;;20.33;67.32;99070.34;5116708;27;45413;-69
2023/05/23 09:02:50;;;;;;;;;20.00;17.75;;;;;20.41;67.15;99072.47;5117917;27;45449;-69
2023/05/23 09:05:16;;;;;;;;;21.75;20.25;;;;;20.46;68.03;99055.03;5096077;27;47047;-69
2023/05/23 09:07:46;;;;;;;;;24.25;23.00;;;;;20.49;67.88;99051.25;5110125;27;45438;-69
2023/05/23 09:10:15;;;;;;;;;22.00;20.25;;;;;20.55;67.98;99046.25;5095616;27;45506;-69
2023/05/23 09:12:42;;;;;;;;;18.50;17.50;;;;;20.63;67.06;99053.63;5110783;27;45331;-70
2023/05/23 09:15:08;;;;;;;;;21.00;18.50;;;;;20.69;67.48;99053.13;5117341;27;46195;-69
2023/05/23 09:17:35;;;;;;;;;28.50;23.75;;;;;20.75;67.37;99055.31;5117505;27;45395;-69
2023/05/23 09:20:01;;;;;;;;;26.50;23.50;;;;;20.76;67.34;99048.13;5117666;27;45393;-69
2023/05/23 09:22:27;;;;;;;;;25.25;23.50;;;;;20.81;68.10;99056.63;5116042;27;45535;-69
2023/05/23 09:24:54;;;;;;;;;20.50;18.75;;;;;20.85;68.62;99055.41;5096825;27;45513;-70
2023/05/23 09:27:20;;;;;;;;;24.50;24.50;;;;;20.89;68.98;99048.81;5091464;27;45490;-69
2023/05/23 09:29:48;;;;;;;;;28.50;26.50;;;;;20.97;68.34;99059.72;5095969;27;45450;-70
2023/05/23 09:32:18;;;;;;;;;30.25;28.75;;;;;21.03;67.53;99045.81;5096346;27;45323;-68
2023/05/23 09:34:49;;;;;;;;;30.50;29.75;;;;;21.11;69.04;99038.00;5096146;27;46091;-70
2023/05/23 09:37:17;;;;;;;;;28.00;26.75;;;;;21.22;68.08;99037.09;5095024;27;45494;-70
2023/05/23 09:39:47;;;;;;;;;25.00;22.25;;;;;21.29;66.77;99050.81;5096672;27;45443;-69
2023/05/23 09:42:30;;;;;;;;;31.50;29.75;;;;;21.30;68.52;99028.38;5094766;27;45715;-69
2023/05/23 09:44:57;;;;;;;;;29.00;26.50;;;;;21.34;67.58;99032.50;5116377;27;45902;-68
2023/05/23 09:47:23;;;;;;;;;40.00;33.00;;;;;21.38;67.08;99025.91;5116196;27;45368;-69
2023/05/23 09:49:48;;;;;;;;;29.75;27.00;;;;;21.41;66.87;99041.75;5116751;27;45978;-68
2023/05/23 09:52:13;;;;;;;;;21.50;21.50;;;;;21.39;66.98;99044.56;5096400;27;45516;-69
2023/05/23 09:54:39;;;;;;;;;25.75;25.75;;;;;21.42;66.89;99036.25;5090205;27;45507;-68
2023/05/23 09:57:09;;;;;;;;;30.00;29.25;;;;;21.47;67.22;99025.97;5096365;27;45322;-69
2023/05/23 09:59:39;;;;;;;;;28.50;28.25;;;;;21.59;65.52;99016.88;5095335;27;45444;-69
2023/05/23 10:02:07;;;;;;;;;27.25;26.75;;;;;21.68;66.12;99039.34;5095526;27;45388;-69
2023/05/23 10:04:34;;;;;;;;;26.25;22.75;;;;;21.82;65.99;99052.41;5095746;27;46188;-70
2023/05/23 10:07:06;;;;;;;;;31.00;28.00;;;;;21.90;65.88;99038.34;5095300;27;45405;-69
2023/05/23 10:09:36;;;;;;;;;27.75;26.50;;;;;21.94;66.12;99037.94;5095485;27;45392;-69
2023/05/23 10:12:31;;;;;;;;;24.00;21.00;;;;;21.95;65.72;99044.97;5095953;27;45353;-69
2023/05/23 10:15:01;;;;;;;;;33.00;30.00;;;;;21.89;65.84;99033.94;5074806;27;48277;-69
2023/05/23 10:17:38;;;;;;;;;26.50;23.25;;;;;21.85;66.68;99014.56;5095538;27;45462;-69
2023/05/23 10:20:15;;;;;;;;;19.25;18.25;;;;;21.87;66.54;99054.69;5096111;27;45365;-69
2023/05/23 10:22:41;;;;;;;;;27.50;25.25;;;;;21.84;66.12;99046.91;5093809;27;45537;-69
2023/05/23 10:25:09;;;;;;;;;33.00;30.25;;;;;21.85;66.77;99013.72;5104913;27;45558;-69
2023/05/23 10:27:36;;;;;;;;;34.50;31.25;;;;;21.86;67.10;99023.47;5113182;27;45378;-69
2023/05/23 10:30:02;;;;;;;;;30.25;26.25;;;;;21.85;67.36;99030.69;5116426;27;45473;-69
2023/05/23 10:32:28;;;;;;;;;28.00;26.50;;;;;21.83;67.43;99019.22;5116548;27;45411;-69
2023/05/23 10:35:22;;;;;;;;;34.00;31.00;;;;;21.84;67.86;99017.38;5115845;27;45527;-69
2023/05/23 10:37:56;;;;;;;;;36.25;29.25;;;;;21.86;67.61;99018.97;5094185;27;45404;-69
2023/05/23 10:40:41;;;;;;;;;27.00;25.25;;;;;21.88;67.39;99029.56;5110230;27;45484;-69
2023/05/23 10:43:15;;;;;;;;;22.00;20.75;;;;;22.00;67.42;99019.59;5095479;27;45481;-69
2023/05/23 10:45:41;;;;;;;;;34.00;30.25;;;;;22.03;67.82;99036.28;5099891;27;46098;-69
2023/05/23 10:48:21;;;;;;;;;32.50;31.00;;;;;22.09;67.86;99013.44;5115398;27;45514;-69
2023/05/23 10:51:02;;;;;;;;;25.25;21.50;;;;;22.20;67.59;99016.84;5080453;27;45410;-69
2023/05/23 10:53:29;;;;;;;;;35.50;30.50;;;;;22.31;67.30;99026.63;5094778;27;45321;-69
2023/05/23 10:55:55;;;;;;;;;21.75;18.00;;;;;22.34;66.39;99001.31;5085563;27;47942;-69
2023/05/23 10:58:21;;;;;;;;;33.75;30.25;;;;;22.33;66.59;99015.72;5099073;27;45459;-70
2023/05/23 11:01:08;;;;;;;;;25.00;23.50;;;;;22.36;66.00;99026.22;5094471;27;45387;-69
2023/05/23 11:03:48;;;;;;;;;30.75;28.00;;;;;22.36;65.66;99028.91;5095456;27;45517;-69
2023/05/23 11:06:37;;;;;;;;;29.00;25.25;;;;;22.32;66.25;99016.72;5101031;27;46491;-69
2023/05/23 11:09:18;;;;;;;;;34.75;30.75;;;;;22.27;66.51;99012.63;5095093;27;45327;-69
2023/05/23 11:11:52;;;;;;;;;40.50;33.75;;;;;22.24;67.00;98998.63;5094642;27;45593;-69
2023/05/23 11:14:38;;;;;;;;;33.00;31.00;;;;;22.24;66.91;98990.56;5094507;27;45677;-70
2023/05/23 11:17:12;;;;;;;;;33.00;30.25;;;;;22.24;67.03;99015.59;5089086;27;46559;-67